createdAt,value
2019-05-03T00:00:12.611Z,100693.02
2019-05-03T00:03:07.021Z,100688.63
2019-05-03T00:05:49.944Z,100691.88
2019-05-03T00:08:19.495Z,100688.67
2019-05-03T00:10:49.012Z,100683.86
2019-05-03T00:13:18.633Z,100690.95
2019-05-03T00:16:06.765Z,100682.81
2019-05-03T00:18:39.725Z,100685.09
2019-05-03T00:21:09.121Z,100684.41
2019-05-03T00:23:38.550Z,100677.94
2019-05-03T00:26:08.031Z,100683.86
2019-05-03T00:28:38.911Z,100683.97
2019-05-03T00:31:09.443Z,100685.55
2019-05-03T00:33:39.778Z,100684.71
2019-05-03T00:36:32.838Z,100687.21
2019-05-03T00:39:21.600Z,100687.08
2019-05-03T00:41:52.106Z,100684.67
2019-05-03T00:44:22.659Z,100684.98
2019-05-03T00:46:52.347Z,100680.63
2019-05-03T00:49:22.735Z,100693.09
2019-05-03T00:51:52.317Z,100682.34
2019-05-03T00:54:22.351Z,100685.22
2019-05-03T00:56:52.213Z,100683.52
2019-05-03T00:59:22.949Z,100678.89
2019-05-03T01:01:55.475Z,100679.67
2019-05-03T01:04:25.239Z,100684.98
2019-05-03T01:06:56.210Z,100684.20
2019-05-03T01:09:28.323Z,100682.95
2019-05-03T01:11:57.975Z,100684.74
2019-05-03T01:14:27.486Z,100681.72
2019-05-03T01:16:57.322Z,100688.89
2019-05-03T01:19:27.752Z,100685.63
2019-05-03T01:21:58.272Z,100686.25
2019-05-03T01:24:29.104Z,100688.81
2019-05-03T01:27:01.820Z,100687.08
2019-05-03T01:29:32.253Z,100698.10
2019-05-03T01:32:03.718Z,100694.13
2019-05-03T01:34:35.107Z,100684.42
2019-05-03T01:37:04.726Z,100688.08
2019-05-03T01:39:34.569Z,100695.50
2019-05-03T01:42:05.389Z,100696.75
2019-05-03T01:44:36.631Z,100695.67
2019-05-03T01:47:12.303Z,100694.72
2019-05-03T01:50:12.170Z,100687.95
2019-05-03T01:52:46.071Z,100697.32
2019-05-03T01:55:16.728Z,100702.22
2019-05-03T01:57:46.270Z,100704.05
2019-05-03T02:00:22.477Z,100708.19
2019-05-03T02:03:01.670Z,100700.39
2019-05-03T02:05:45.755Z,100704.83
2019-05-03T02:08:18.751Z,100699.45
2019-05-03T02:10:48.383Z,100695.92
2019-05-03T02:13:19.413Z,100702.47
2019-05-03T02:15:52.854Z,100699.44
2019-05-03T02:18:23.333Z,100703.95
2019-05-03T02:20:52.885Z,100701.92
2019-05-03T02:23:23.487Z,100703.17
2019-05-03T02:25:58.309Z,100701.01
2019-05-03T02:28:26.073Z,100702.47
2019-05-03T02:30:55.581Z,100702.34
2019-05-03T02:33:26.148Z,100700.84
2019-05-03T02:35:55.781Z,100701.67
2019-05-03T02:38:26.181Z,100702.09
2019-05-03T02:40:55.768Z,100702.09
2019-05-03T02:43:31.739Z,100704.48
2019-05-03T02:46:11.614Z,100700.42
2019-05-03T02:48:50.456Z,100700.05
2019-05-03T02:51:19.823Z,100701.84
2019-05-03T02:53:49.979Z,100705.27
2019-05-03T02:56:22.552Z,100715.37
2019-05-03T02:58:51.695Z,100713.26
2019-05-03T03:01:21.207Z,100714.46
2019-05-03T03:03:55.833Z,100715.08
2019-05-03T03:06:26.698Z,100712.11
2019-05-03T03:08:58.725Z,100710.94
2019-05-03T03:11:30.285Z,100721.92
2019-05-03T03:14:01.948Z,100725.68
2019-05-03T03:16:36.183Z,100730.48
2019-05-03T03:19:07.825Z,100724.27
2019-05-03T03:21:42.373Z,100727.72
2019-05-03T03:24:17.443Z,100720.91
2019-05-03T03:26:49.985Z,100720.48
2019-05-03T03:29:25.017Z,100725.15
2019-05-03T03:32:19.653Z,100731.19
2019-05-03T03:35:03.126Z,100728.59
2019-05-03T03:37:31.396Z,100731.01
2019-05-03T03:40:01.144Z,100738.50
2019-05-03T03:42:32.683Z,100737.55
2019-05-03T03:45:06.125Z,100740.89
2019-05-03T03:47:40.864Z,100735.14
2019-05-03T03:50:11.340Z,100755.58
2019-05-03T03:52:45.059Z,100749.36
2019-05-03T03:55:15.846Z,100753.16
2019-05-03T03:57:46.974Z,100757.92
2019-05-03T04:00:19.405Z,100760.95
2019-05-03T04:02:50.007Z,100763.42
2019-05-03T04:05:20.862Z,100761.81
2019-05-03T04:07:51.793Z,100769.89
2019-05-03T04:10:26.086Z,100767.66
2019-05-03T04:12:56.120Z,100774.36
2019-05-03T04:15:57.989Z,100780.83
2019-05-03T04:18:35.946Z,100780.63
2019-05-03T04:21:06.005Z,100784.70
2019-05-03T04:23:38.338Z,100788.43
2019-05-03T04:26:09.427Z,100792.86
2019-05-03T04:28:40.356Z,100794.90
2019-05-03T04:31:10.093Z,100790.27
2019-05-03T04:33:40.955Z,100801.00
2019-05-03T04:36:11.377Z,100800.72
2019-05-03T04:38:40.963Z,100803.03
2019-05-03T04:41:10.368Z,100805.66
2019-05-03T04:43:39.765Z,100810.91
2019-05-03T04:46:17.039Z,100815.48
2019-05-03T04:48:47.569Z,100815.40
2019-05-03T04:51:18.804Z,100810.02
2019-05-03T04:53:57.856Z,100815.40
2019-05-03T04:56:30.728Z,100817.34
2019-05-03T04:59:05.214Z,100823.73
2019-05-03T05:01:35.335Z,100824.86
2019-05-03T05:04:06.532Z,100828.22
2019-05-03T05:06:36.374Z,100831.03
2019-05-03T05:09:07.564Z,100831.74
2019-05-03T05:11:38.040Z,100832.53
2019-05-03T05:14:10.128Z,100843.95
2019-05-03T05:16:39.954Z,100834.33
2019-05-03T05:19:15.333Z,100841.75
2019-05-03T05:21:48.913Z,100835.45
2019-05-03T05:24:18.366Z,100847.16
2019-05-03T05:27:08.959Z,100848.19
2019-05-03T05:29:40.933Z,100842.97
2019-05-03T05:32:10.533Z,100845.41
2019-05-03T05:34:41.594Z,100851.25
2019-05-03T05:37:14.431Z,100856.24
2019-05-03T05:39:46.442Z,100846.41
2019-05-03T05:42:16.970Z,100852.80
2019-05-03T05:44:47.500Z,100852.71
2019-05-03T05:47:36.555Z,100864.70
2019-05-03T05:50:22.013Z,100854.83
2019-05-03T05:52:55.102Z,100867.35
2019-05-03T05:55:42.418Z,100849.80
2019-05-03T05:58:37.426Z,100852.66
2019-05-03T06:01:27.793Z,100864.89
2019-05-03T06:03:57.530Z,100856.84
2019-05-03T06:06:45.141Z,100869.58
2019-05-03T06:09:38.833Z,100876.91
2019-05-03T06:12:14.822Z,100873.56
2019-05-03T06:14:55.128Z,100869.58
2019-05-03T06:17:32.312Z,100871.59
2019-05-03T06:20:24.601Z,100873.64
2019-05-03T06:23:05.223Z,100882.38
2019-05-03T06:25:40.444Z,100881.56
2019-05-03T06:28:20.823Z,100872.97
2019-05-03T06:31:01.132Z,100874.20
2019-05-03T06:33:30.633Z,100874.88
2019-05-03T06:36:01.823Z,100880.48
2019-05-03T06:38:34.390Z,100878.72
2019-05-03T06:41:05.730Z,100890.50
2019-05-03T06:43:39.634Z,100880.52
2019-05-03T06:46:07.486Z,100877.22
2019-05-03T06:48:37.016Z,100883.33
2019-05-03T06:51:10.982Z,100878.50
2019-05-03T06:53:41.830Z,100870.97
2019-05-03T06:56:14.736Z,100868.17
2019-05-03T06:58:45.483Z,100858.70
2019-05-03T07:01:26.094Z,100862.02
2019-05-03T07:04:10.986Z,100869.23
2019-05-03T07:06:59.746Z,100876.02
2019-05-03T07:09:38.887Z,100865.30
2019-05-03T07:12:08.476Z,100875.09
2019-05-03T07:14:38.118Z,100872.09
2019-05-03T07:17:08.948Z,100867.11
2019-05-03T07:19:39.587Z,100863.86
2019-05-03T07:22:12.056Z,100854.13
2019-05-03T07:24:41.810Z,100857.87
2019-05-03T07:27:11.408Z,100860.35
2019-05-03T07:29:44.052Z,100871.61
2019-05-03T07:32:17.573Z,100858.22
2019-05-03T07:34:47.062Z,100866.33
2019-05-03T07:37:16.507Z,100865.25
2019-05-03T07:39:46.250Z,100865.52
2019-05-03T07:42:15.780Z,100855.49
2019-05-03T07:44:46.915Z,100867.78
2019-05-03T07:47:16.417Z,100863.92
2019-05-03T07:49:47.037Z,100874.79
2019-05-03T07:52:18.230Z,100869.25
2019-05-03T07:54:48.266Z,100880.08
2019-05-03T07:57:46.534Z,100874.40
2019-05-03T08:00:22.054Z,100873.72
2019-05-03T08:02:51.570Z,100877.81
2019-05-03T08:05:24.565Z,100867.48
2019-05-03T08:07:56.675Z,100860.28
2019-05-03T08:10:27.776Z,100855.07
2019-05-03T08:13:04.570Z,100868.82
2019-05-03T08:15:34.771Z,100869.52
2019-05-03T08:18:04.952Z,100872.97
2019-05-03T08:20:35.043Z,100876.05
2019-05-03T08:23:06.095Z,100874.95
2019-05-03T08:25:35.588Z,100872.41
2019-05-03T08:28:10.075Z,100865.02
2019-05-03T08:30:54.329Z,100868.80
2019-05-03T08:34:04.681Z,100869.48
2019-05-03T08:36:58.525Z,100865.06
2019-05-03T08:39:29.898Z,100861.89
2019-05-03T08:42:04.815Z,100862.69
2019-05-03T08:44:35.362Z,100857.94
2019-05-03T08:47:05.386Z,100866.95
2019-05-03T08:49:37.744Z,100871.23
2019-05-03T08:52:08.791Z,100874.79
2019-05-03T08:54:38.402Z,100889.50
2019-05-03T08:57:08.021Z,100887.77
2019-05-03T08:59:38.558Z,100887.04
2019-05-03T09:02:14.287Z,100880.97
2019-05-03T09:04:43.266Z,100876.67
2019-05-03T09:07:14.794Z,100873.89
2019-05-03T09:10:12.333Z,100869.20
2019-05-03T09:12:56.840Z,100861.70
2019-05-03T09:15:26.656Z,100868.98
2019-05-03T09:17:56.276Z,100875.84
2019-05-03T09:20:26.321Z,100884.39
2019-05-03T09:22:55.919Z,100914.75
2019-05-03T09:25:27.891Z,100903.55
2019-05-03T09:27:59.001Z,100907.06
2019-05-03T09:30:29.706Z,100903.97
2019-05-03T09:32:59.134Z,100899.07
2019-05-03T09:35:33.184Z,100898.19
2019-05-03T09:38:01.439Z,100891.05
2019-05-03T09:40:38.055Z,100895.48
2019-05-03T09:43:09.273Z,100900.98
2019-05-03T09:45:39.878Z,100901.75
2019-05-03T09:48:11.008Z,100894.09
2019-05-03T09:50:45.207Z,100884.06
2019-05-03T09:53:16.048Z,100887.09
2019-05-03T09:55:47.846Z,100872.10
2019-05-03T09:58:18.687Z,100877.14
2019-05-03T10:00:51.796Z,100872.50
2019-05-03T10:03:21.926Z,100868.53
2019-05-03T10:05:55.201Z,100866.42
2019-05-03T10:08:27.219Z,100859.34
2019-05-03T10:11:12.240Z,100869.11
2019-05-03T10:13:42.142Z,100870.05
2019-05-03T10:16:11.745Z,100873.06
2019-05-03T10:18:41.125Z,100874.34
2019-05-03T10:21:10.707Z,100887.16
2019-05-03T10:23:41.529Z,100884.30
2019-05-03T10:26:11.950Z,100875.55
2019-05-03T10:28:41.580Z,100873.68
2019-05-03T10:31:10.975Z,100880.45
2019-05-03T10:33:45.223Z,100871.27
2019-05-03T10:36:15.575Z,100875.36
2019-05-03T10:38:45.941Z,100886.19
2019-05-03T10:41:15.577Z,100879.56
2019-05-03T10:43:46.597Z,100877.83
2019-05-03T10:46:16.153Z,100877.03
2019-05-03T10:48:45.602Z,100868.09
2019-05-03T10:51:15.820Z,100861.89
2019-05-03T10:53:48.192Z,100862.25
2019-05-03T10:56:28.880Z,100862.11
2019-05-03T10:59:03.301Z,100857.77
2019-05-03T11:01:51.955Z,100849.87
2019-05-03T11:04:23.002Z,100856.33
2019-05-03T11:06:54.930Z,100862.31
2019-05-03T11:09:26.086Z,100846.48
2019-05-03T11:11:58.578Z,100852.06
2019-05-03T11:14:30.139Z,100858.70
2019-05-03T11:17:00.630Z,100851.95
2019-05-03T11:19:31.929Z,100842.17
2019-05-03T11:22:02.609Z,100848.77
2019-05-03T11:24:32.166Z,100853.05
2019-05-03T11:27:06.191Z,100853.66
2019-05-03T11:29:37.744Z,100843.22
2019-05-03T11:32:25.563Z,100853.14
2019-05-03T11:35:05.405Z,100853.42
2019-05-03T11:37:46.522Z,100854.72
2019-05-03T11:40:18.257Z,100841.02
2019-05-03T11:42:48.351Z,100862.22
2019-05-03T11:45:20.325Z,100856.58
2019-05-03T11:47:50.006Z,100864.23
2019-05-03T11:50:19.542Z,100855.16
2019-05-03T11:52:49.072Z,100855.83
2019-05-03T11:55:20.084Z,100865.52
2019-05-03T11:57:51.363Z,100885.13
2019-05-03T12:00:30.197Z,100886.07
2019-05-03T12:03:28.693Z,100882.97
2019-05-03T12:06:00.913Z,100883.14
2019-05-03T12:08:30.624Z,100883.14
2019-05-03T12:11:01.764Z,100883.45
2019-05-03T12:13:32.075Z,100876.28
2019-05-03T12:16:05.472Z,100874.47
2019-05-03T12:18:48.902Z,100874.02
2019-05-03T12:21:09.132Z,100863.11
2019-05-03T12:23:39.726Z,100856.36
2019-05-03T12:26:12.983Z,100848.65
2019-05-03T12:28:44.649Z,100858.09
2019-05-03T12:31:29.648Z,100842.98
2019-05-03T12:33:46.158Z,100865.03
2019-05-03T12:36:16.066Z,100862.47
2019-05-03T12:38:45.581Z,100885.05
2019-05-03T12:41:16.857Z,100879.00
2019-05-03T12:43:47.390Z,100883.08
2019-05-03T12:46:18.169Z,100874.90
2019-05-03T12:48:47.848Z,100871.43
2019-05-03T12:51:17.664Z,100872.84
2019-05-03T12:53:48.277Z,100867.47
2019-05-03T12:56:24.229Z,100874.05
2019-05-03T12:59:10.963Z,100868.77
2019-05-03T13:02:09.523Z,100854.20
2019-05-03T13:04:39.718Z,100844.03
2019-05-03T13:07:23.830Z,100840.89
2019-05-03T13:09:56.879Z,100843.11
2019-05-03T13:12:29.727Z,100833.79
2019-05-03T13:14:59.379Z,100836.63
2019-05-03T13:17:38.454Z,100836.24
2019-05-03T13:20:14.019Z,100830.08
2019-05-03T13:22:45.855Z,100819.94
2019-05-03T13:25:16.337Z,100831.11
2019-05-03T13:27:47.281Z,100826.66
2019-05-03T13:30:18.009Z,100826.92
2019-05-03T13:32:47.432Z,100820.59
2019-05-03T13:35:17.293Z,100827.68
2019-05-03T13:37:47.288Z,100824.45
2019-05-03T13:40:17.871Z,100822.80
2019-05-03T13:42:56.118Z,100812.80
2019-05-03T13:45:18.533Z,100814.91
2019-05-03T13:47:50.381Z,100817.70
2019-05-03T13:50:20.810Z,100821.53
2019-05-03T13:52:51.652Z,100831.98
2019-05-03T13:55:24.649Z,100828.89
2019-05-03T13:57:55.368Z,100826.30
2019-05-03T14:00:25.012Z,100831.93
2019-05-03T14:02:56.332Z,100824.16
2019-05-03T14:05:25.964Z,100823.98
2019-05-03T14:07:56.371Z,100808.31
2019-05-03T14:10:27.308Z,100810.49
2019-05-03T14:12:58.616Z,100819.23
2019-05-03T14:15:29.650Z,100809.80
2019-05-03T14:18:00.614Z,100809.17
2019-05-03T14:20:47.681Z,100803.39
2019-05-03T14:23:19.583Z,100799.25
2019-05-03T14:25:48.995Z,100797.27
2019-05-03T14:28:18.772Z,100790.48
2019-05-03T14:30:48.274Z,100794.17
2019-05-03T14:33:17.849Z,100785.54
2019-05-03T14:35:49.209Z,100776.41
2019-05-03T14:38:21.528Z,100776.14
2019-05-03T14:40:51.069Z,100782.88
2019-05-03T14:43:20.929Z,100775.38
2019-05-03T14:45:50.480Z,100770.85
2019-05-03T14:48:20.033Z,100773.75
2019-05-03T14:50:51.118Z,100770.75
2019-05-03T14:53:22.460Z,100759.72
2019-05-03T14:55:58.334Z,100761.12
2019-05-03T14:58:58.888Z,100756.98
2019-05-03T15:01:38.675Z,100753.70
2019-05-03T15:04:08.220Z,100754.01
2019-05-03T15:06:37.889Z,100749.61
2019-05-03T15:09:08.604Z,100754.34
2019-05-03T15:11:39.599Z,100748.52
2019-05-03T15:14:10.963Z,100748.98
2019-05-03T15:16:40.526Z,100743.34
2019-05-03T15:19:10.002Z,100740.04
2019-05-03T15:21:39.554Z,100730.80
2019-05-03T15:24:10.291Z,100736.25
2019-05-03T15:26:39.779Z,100739.16
2019-05-03T15:29:09.621Z,100736.61
2019-05-03T15:31:40.381Z,100727.34
2019-05-03T15:34:10.001Z,100729.88
2019-05-03T15:36:41.003Z,100723.41
2019-05-03T15:39:15.269Z,100730.43
2019-05-03T15:41:45.044Z,100730.02
2019-05-03T15:44:25.278Z,100727.88
2019-05-03T15:47:02.613Z,100736.39
2019-05-03T15:49:32.255Z,100735.70
2019-05-03T15:52:01.904Z,100732.63
2019-05-03T15:54:33.155Z,100732.25
2019-05-03T15:57:05.029Z,100735.15
2019-05-03T15:59:35.926Z,100734.73
2019-05-03T16:02:06.904Z,100734.55
2019-05-03T16:04:36.836Z,100734.08
2019-05-03T16:07:06.528Z,100725.81
2019-05-03T16:09:37.980Z,100731.92
2019-05-03T16:12:07.809Z,100724.52
2019-05-03T16:14:38.647Z,100721.45
2019-05-03T16:17:09.057Z,100724.02
2019-05-03T16:19:39.739Z,100722.10
2019-05-03T16:22:09.214Z,100715.31
2019-05-03T16:24:44.806Z,100719.96
2019-05-03T16:27:47.434Z,100712.27
2019-05-03T16:30:36.425Z,100715.44
2019-05-03T16:33:22.417Z,100707.59
2019-05-03T16:35:44.397Z,100706.80
2019-05-03T16:38:15.560Z,100710.97
2019-05-03T16:40:46.701Z,100715.37
2019-05-03T16:43:17.407Z,100699.22
2019-05-03T16:45:46.831Z,100704.67
2019-05-03T16:48:18.400Z,100703.62
2019-05-03T16:50:47.756Z,100700.11
2019-05-03T16:53:17.305Z,100700.16
2019-05-03T16:55:47.116Z,100698.91
2019-05-03T16:58:18.113Z,100704.13
2019-05-03T17:00:48.781Z,100693.09
2019-05-03T17:03:37.915Z,100701.14
2019-05-03T17:06:16.650Z,100692.19
2019-05-03T17:09:15.664Z,100694.86
2019-05-03T17:11:55.993Z,100693.20
2019-05-03T17:14:24.953Z,100692.12
2019-05-03T17:16:55.677Z,100692.94
2019-05-03T17:19:26.191Z,100696.30
2019-05-03T17:21:56.290Z,100699.21
2019-05-03T17:24:29.055Z,100704.03
2019-05-03T17:26:58.448Z,100715.19
2019-05-03T17:29:30.187Z,100712.52
2019-05-03T17:32:02.032Z,100721.97
2019-05-03T17:34:31.639Z,100726.56
2019-05-03T17:37:02.148Z,100726.16
2019-05-03T17:39:51.025Z,100723.30
2019-05-03T17:42:31.011Z,100722.00
2019-05-03T17:45:00.642Z,100721.31
2019-05-03T17:47:30.148Z,100716.38
2019-05-03T17:49:59.997Z,100713.76
2019-05-03T17:52:48.326Z,100712.28
2019-05-03T17:55:36.793Z,100702.59
2019-05-03T17:58:37.489Z,100712.02
2019-05-03T18:01:23.524Z,100703.05
2019-05-03T18:04:05.671Z,100709.69
2019-05-03T18:06:32.084Z,100716.71
2019-05-03T18:09:37.119Z,100712.79
2019-05-03T18:12:08.269Z,100714.73
2019-05-03T18:14:38.730Z,100704.11
2019-05-03T18:17:08.311Z,100698.85
2019-05-03T18:19:40.898Z,100696.84
2019-05-03T18:22:11.325Z,100695.33
2019-05-03T18:24:45.519Z,100693.38
2019-05-03T18:27:18.115Z,100692.67
2019-05-03T18:29:48.658Z,100687.44
2019-05-03T18:32:21.750Z,100706.47
2019-05-03T18:34:51.526Z,100695.45
2019-05-03T18:37:24.514Z,100706.89
2019-05-03T18:39:54.777Z,100702.53
2019-05-03T18:42:35.953Z,100706.64
2019-05-03T18:45:19.192Z,100710.02
2019-05-03T18:47:48.623Z,100718.81
2019-05-03T18:50:18.422Z,100721.70
2019-05-03T18:52:50.064Z,100730.86
2019-05-03T18:55:22.090Z,100739.98
2019-05-03T18:57:51.862Z,100751.54
2019-05-03T19:00:24.641Z,100755.81
2019-05-03T19:02:55.370Z,100746.52
2019-05-03T19:05:26.801Z,100754.72
2019-05-03T19:08:05.342Z,100764.23
2019-05-03T19:10:44.635Z,100758.70
2019-05-03T19:13:27.232Z,100757.70
2019-05-03T19:15:56.846Z,100754.42
2019-05-03T19:18:28.643Z,100739.98
2019-05-03T19:20:59.976Z,100743.10
2019-05-03T19:23:31.232Z,100745.43
2019-05-03T19:26:03.189Z,100739.59
2019-05-03T19:28:35.408Z,100732.28
2019-05-03T19:31:06.874Z,100727.37
2019-05-03T19:33:37.257Z,100717.12
2019-05-03T19:36:07.069Z,100719.89
2019-05-03T19:38:36.545Z,100721.77
2019-05-03T19:41:06.100Z,100717.20
2019-05-03T19:43:35.742Z,100718.87
2019-05-03T19:46:07.449Z,100715.59
2019-05-03T19:48:37.267Z,100716.94
2019-05-03T19:51:06.923Z,100704.92
2019-05-03T19:53:49.803Z,100712.11
2019-05-03T19:56:21.225Z,100701.55
2019-05-03T19:58:52.435Z,100701.23
2019-05-03T20:01:40.975Z,100698.66
2019-05-03T20:04:41.859Z,100700.68
2019-05-03T20:07:25.353Z,100702.03
2019-05-03T20:09:55.738Z,100700.53
2019-05-03T20:12:25.189Z,100703.20
2019-05-03T20:14:54.847Z,100695.13
2019-05-03T20:17:24.461Z,100698.81
2019-05-03T20:19:57.472Z,100695.69
2019-05-03T20:22:30.312Z,100700.28
2019-05-03T20:25:02.000Z,100704.81
2019-05-03T20:27:31.481Z,100697.86
2019-05-03T20:30:01.486Z,100692.95
2019-05-03T20:32:31.972Z,100698.18
2019-05-03T20:35:12.923Z,100696.30
2019-05-03T20:37:34.430Z,100699.84
2019-05-03T20:40:04.944Z,100694.94
2019-05-03T20:43:04.876Z,100691.59
2019-05-03T20:45:54.698Z,100693.55
2019-05-03T20:48:25.138Z,100688.75
2019-05-03T20:50:55.164Z,100694.35
2019-05-03T20:53:25.169Z,100694.29
2019-05-03T20:55:54.708Z,100696.86
2019-05-03T20:58:25.141Z,100674.44
2019-05-03T21:00:54.968Z,100677.03
2019-05-03T21:03:26.300Z,100680.23
2019-05-03T21:05:58.897Z,100677.64
2019-05-03T21:08:28.349Z,100665.88
2019-05-03T21:10:59.121Z,100677.77
2019-05-03T21:13:41.320Z,100678.69
2019-05-03T21:16:23.368Z,100683.91
2019-05-03T21:19:25.687Z,100683.12
2019-05-03T21:22:08.171Z,100690.00
2019-05-03T21:24:47.025Z,100682.90
2019-05-03T21:27:18.220Z,100679.67
2019-05-03T21:29:55.161Z,100685.05
2019-05-03T21:32:25.441Z,100681.59
2019-05-03T21:34:56.723Z,100680.81
2019-05-03T21:37:26.338Z,100679.12
2019-05-03T21:39:55.946Z,100679.91
2019-05-03T21:42:25.441Z,100681.98
2019-05-03T21:44:56.268Z,100676.39
2019-05-03T21:47:41.134Z,100671.78
2019-05-03T21:50:14.789Z,100668.64
2019-05-03T21:52:45.809Z,100670.41
2019-05-03T21:55:17.132Z,100668.99
2019-05-03T21:57:46.630Z,100662.39
2019-05-03T22:00:17.317Z,100664.82
2019-05-03T22:02:46.988Z,100663.44
2019-05-03T22:05:16.702Z,100662.09
2019-05-03T22:07:47.347Z,100662.27
2019-05-03T22:10:18.283Z,100660.00
2019-05-03T22:12:50.757Z,100658.38
2019-05-03T22:15:34.652Z,100653.00
2019-05-03T22:18:21.037Z,100657.50
2019-05-03T22:21:13.361Z,100654.04
2019-05-03T22:24:06.873Z,100659.34
2019-05-03T22:26:52.164Z,100657.75
2019-05-03T22:29:25.249Z,100658.63
2019-05-03T22:31:54.867Z,100654.40
2019-05-03T22:34:25.722Z,100654.32
2019-05-03T22:36:56.528Z,100648.76
2019-05-03T22:39:27.077Z,100648.86
2019-05-03T22:41:56.856Z,100655.10
2019-05-03T22:44:26.258Z,100645.94
2019-05-03T22:46:55.631Z,100641.02
2019-05-03T22:49:26.410Z,100637.84
2019-05-03T22:51:55.799Z,100635.98
2019-05-03T22:54:25.323Z,100635.61
2019-05-03T22:56:56.783Z,100634.66
2019-05-03T22:59:27.343Z,100629.27
2019-05-03T23:01:58.257Z,100630.22
2019-05-03T23:04:29.708Z,100633.13
2019-05-03T23:07:00.151Z,100632.34
2019-05-03T23:09:30.979Z,100629.89
2019-05-03T23:12:00.692Z,100632.69
2019-05-03T23:14:30.199Z,100626.67
2019-05-03T23:17:02.420Z,100628.95
2019-05-03T23:19:36.373Z,100626.94
2019-05-03T23:22:24.692Z,100624.79
2019-05-03T23:24:54.923Z,100622.27
2019-05-03T23:27:25.105Z,100617.58
2019-05-03T23:29:55.258Z,100613.08
2019-05-03T23:32:28.065Z,100615.19
2019-05-03T23:34:57.505Z,100612.88
2019-05-03T23:37:28.059Z,100618.20
2019-05-03T23:39:58.956Z,100620.93
2019-05-03T23:42:30.100Z,100622.28
2019-05-03T23:45:02.448Z,100612.03
2019-05-03T23:47:42.013Z,100609.20
2019-05-03T23:50:16.228Z,100604.36
2019-05-03T23:52:48.706Z,100610.34
2019-05-03T23:55:25.288Z,100597.56
2019-05-03T23:57:55.871Z,100595.91
